Time;durP1;ratioP1;P1;durP2;ratioP2;P2;SDS_P1;SDS_P2;PMS_P1;PMS_P2;Temp;Humidity;BMP_temperature;BMP_pressure;BME280_temperature;BME280_humidity;BME280_pressure;Samples;Min_cycle;Max_cycle;Signal;HPM_P1;HPM_P2
2021/10/18 00:02:16;;;;;;;18.65;10.98;;;;;;;9.28;71.60;102059.98;1764004;81;21753;-79
2021/10/18 00:04:49;;;;;;;25.85;12.23;;;;;;;9.30;71.53;102060.60;1749725;81;21176;-79
2021/10/18 00:07:22;;;;;;;20.97;10.63;;;;;;;9.31;71.54;102060.08;1736232;82;21202;-79
2021/10/18 00:09:55;;;;;;;25.00;11.83;;;;;;;9.31;71.51;102060.91;1738319;81;21211;-80
2021/10/18 00:12:28;;;;;;;25.13;11.13;;;;;;;9.31;71.50;102066.45;1736975;82;21321;-79
2021/10/18 00:15:01;;;;;;;21.35;11.30;;;;;;;9.31;71.50;102066.45;1737700;82;21313;-79
2021/10/18 00:17:34;;;;;;;23.73;11.33;;;;;;;9.33;72.00;102062.09;1736716;81;21192;-79
2021/10/18 00:20:09;;;;;;;21.07;10.05;;;;;;;9.37;72.29;102061.98;1737080;82;21195;-79
2021/10/18 00:22:42;;;;;;;21.45;10.95;;;;;;;9.39;72.31;102062.59;1737188;81;21902;-79
2021/10/18 00:25:15;;;;;;;30.32;12.28;;;;;;;9.36;72.36;102062.50;1741609;81;21306;-79
2021/10/18 00:27:47;;;;;;;27.90;11.63;;;;;;;9.35;72.57;102066.34;1741795;81;21330;-79
2021/10/18 00:30:25;;;;;;;27.37;11.55;;;;;;;9.31;72.73;102056.76;1760010;81;21303;-79
2021/10/18 00:32:57;;;;;;;23.77;11.25;;;;;;;9.30;72.90;102062.55;1772236;81;21226;-78
2021/10/18 00:35:30;;;;;;;23.90;11.63;;;;;;;9.26;73.03;102061.27;1770437;81;21167;-79
2021/10/18 00:38:02;;;;;;;26.73;11.95;;;;;;;9.23;73.17;102058.95;1767781;81;21848;-79
2021/10/18 00:40:43;;;;;;;25.08;12.30;;;;;;;9.22;73.27;102055.83;1767916;80;21172;-78
2021/10/18 00:43:22;;;;;;;25.80;12.65;;;;;;;9.18;73.29;102063.73;1767270;81;21191;-80
2021/10/18 00:45:56;;;;;;;23.10;11.38;;;;;;;9.10;73.29;102061.20;1767064;81;21706;-75
2021/10/18 00:48:30;;;;;;;23.20;11.38;;;;;;;8.99;73.46;102062.42;1811140;79;21716;-75
2021/10/18 00:51:03;;;;;;;22.52;11.48;;;;;;;8.92;73.68;102064.33;1770543;81;21890;-75
2021/10/18 00:53:36;;;;;;;25.60;13.08;;;;;;;8.85;74.03;102069.03;1786104;79;21313;-78
2021/10/18 00:56:09;;;;;;;32.20;12.68;;;;;;;8.84;74.29;102062.66;1772027;81;21306;-76
2021/10/18 00:58:43;;;;;;;28.62;14.25;;;;;;;8.79;74.32;102072.14;1770155;81;21211;-76
2021/10/18 01:01:18;;;;;;;26.12;12.85;;;;;;;8.72;74.49;102064.37;1770098;79;21182;-87
2021/10/18 01:03:51;;;;;;;24.35;13.48;;;;;;;8.68;74.58;102066.38;1752754;81;21411;-76
2021/10/18 01:06:23;;;;;;;32.00;14.50;;;;;;;8.63;74.71;102070.35;1752995;82;21376;-77
2021/10/18 01:08:56;;;;;;;34.05;14.87;;;;;;;8.61;74.90;102066.92;1739820;82;21340;-77
2021/10/18 01:11:29;;;;;;;37.08;16.45;;;;;;;8.58;75.11;102064.05;1726571;82;21306;-75
2021/10/18 01:14:02;;;;;;;39.50;18.45;;;;;;;8.57;75.20;102058.75;1752696;82;21183;-75
2021/10/18 01:16:36;;;;;;;29.18;15.40;;;;;;;8.54;75.23;102061.93;1740040;81;21364;-75
2021/10/18 01:19:17;;;;;;;34.20;15.88;;;;;;;8.49;75.29;102058.42;1793537;79;21297;-75
2021/10/18 01:21:54;;;;;;;32.85;15.15;;;;;;;8.47;75.39;102062.47;1746969;82;21847;-75
2021/10/18 01:24:26;;;;;;;43.33;17.73;;;;;;;8.44;75.57;102058.20;1794426;79;21396;-75
2021/10/18 01:27:01;;;;;;;40.30;17.75;;;;;;;8.43;75.73;102068.09;1795688;79;21725;-77
2021/10/18 01:29:35;;;;;;;38.58;17.32;;;;;;;8.40;75.75;102067.98;1762509;80;21179;-74
2021/10/18 01:32:07;;;;;;;45.10;18.65;;;;;;;8.38;75.84;102068.74;1732937;82;21218;-76
2021/10/18 01:34:40;;;;;;;38.08;16.85;;;;;;;8.35;75.86;102065.03;1802978;79;21764;-77
2021/10/18 01:37:13;;;;;;;38.28;17.25;;;;;;;8.31;75.96;102073.42;1736880;82;21336;-78
2021/10/18 01:39:50;;;;;;;40.70;17.92;;;;;;;8.28;76.11;102073.87;1736496;81;21305;-76
2021/10/18 01:42:22;;;;;;;38.13;18.20;;;;;;;8.27;76.20;102077.67;1722509;82;21357;-75
2021/10/18 01:44:59;;;;;;;34.50;17.52;;;;;;;8.24;76.24;102073.09;1744434;82;21313;-76
2021/10/18 01:47:31;;;;;;;34.78;17.60;;;;;;;8.21;76.28;102079.89;1719662;82;21785;-78
2021/10/18 01:50:16;;;;;;;41.15;17.77;;;;;;;8.17;76.36;102073.59;1725815;82;21747;-78
2021/10/18 01:52:51;;;;;;;47.83;18.27;;;;;;;8.15;76.45;102084.86;1787506;80;21361;-76
2021/10/18 01:55:23;;;;;;;35.28;18.00;;;;;;;8.14;76.55;102085.92;1804589;79;21323;-77
2021/10/18 01:57:56;;;;;;;36.50;17.80;;;;;;;8.15;76.65;102088.17;1783304;80;21481;-77
2021/10/18 02:00:29;;;;;;;35.50;19.33;;;;;;;8.16;76.70;102086.59;1773877;79;21309;-71
2021/10/18 02:03:01;;;;;;;42.93;17.87;;;;;;;8.16;76.62;102094.89;1788594;79;21167;-76
2021/10/18 02:05:38;;;;;;;40.73;17.60;;;;;;;8.11;76.55;102088.27;1793381;79;21237;-71
2021/10/18 02:08:14;;;;;;;33.78;17.73;;;;;;;8.08;76.68;102098.37;1804656;79;21954;-72
2021/10/18 02:10:47;;;;;;;34.40;18.60;;;;;;;8.10;76.81;102100.39;1789403;79;21333;-71
2021/10/18 02:13:20;;;;;;;37.00;19.92;;;;;;;8.09;76.88;102100.91;1789395;79;21336;-73
2021/10/18 02:15:53;;;;;;;36.38;21.02;;;;;;;8.09;76.82;102104.23;1777545;80;21744;-72
2021/10/18 02:18:29;;;;;;;33.33;17.73;;;;;;;8.02;76.81;102102.81;1764137;81;21317;-77
2021/10/18 02:21:03;;;;;;;29.75;15.18;;;;;;;8.00;76.92;102103.56;1775635;80;21309;-73
2021/10/18 02:23:35;;;;;;;41.28;18.30;;;;;;;7.98;76.96;102105.70;1777382;80;21143;-70
2021/10/18 02:26:10;;;;;;;42.27;19.25;;;;;;;7.93;77.06;102106.84;1777338;81;21348;-72
2021/10/18 02:28:43;;;;;;;39.58;19.50;;;;;;;7.94;77.21;102107.16;1777433;81;21215;-77
2021/10/18 02:31:15;;;;;;;36.50;19.32;;;;;;;7.94;77.22;102109.06;1777353;81;21278;-71
2021/10/18 02:33:48;;;;;;;35.15;18.10;;;;;;;7.92;77.25;102102.38;1777549;81;21372;-71
2021/10/18 02:36:21;;;;;;;;;;;;;;;7.89;77.24;102115.23;1780143;81;21317;-72
2021/10/18 02:38:57;;;;;;;34.27;15.80;;;;;;;7.87;77.27;102115.11;1777502;81;20570;-73
2021/10/18 02:41:32;;;;;;;40.65;17.27;;;;;;;7.81;77.48;102112.66;1777310;81;21175;-72
2021/10/18 02:44:07;;;;;;;43.75;20.52;;;;;;;7.81;77.60;102107.64;1777631;81;21168;-72
2021/10/18 02:46:39;;;;;;;37.30;18.75;;;;;;;7.81;77.59;102114.05;1761056;80;21800;-73
2021/10/18 02:49:12;;;;;;;32.40;16.73;;;;;;;7.78;77.61;102110.84;1772039;81;21372;-71
2021/10/18 02:51:44;;;;;;;34.05;15.85;;;;;;;7.74;77.55;102113.17;1751984;79;21196;-72
2021/10/18 02:54:17;;;;;;;38.00;18.00;;;;;;;7.69;77.64;102110.17;1738010;81;21740;-72
2021/10/18 02:56:49;;;;;;;40.85;17.35;;;;;;;7.70;77.77;102113.25;1746085;81;21163;-71
2021/10/18 02:59:22;;;;;;;33.92;18.48;;;;;;;7.70;77.87;102111.87;1691977;83;21459;-74
2021/10/18 03:01:55;;;;;;;42.87;19.80;;;;;;;7.71;77.87;102114.95;1708217;83;21248;-72
2021/10/18 03:04:30;;;;;;;37.23;17.40;;;;;;;7.69;77.84;102115.70;1742705;82;21500;-71
2021/10/18 03:07:03;;;;;;;33.23;16.15;;;;;;;7.65;77.83;102119.09;1753696;81;21207;-72
2021/10/18 03:09:36;;;;;;;44.23;18.62;;;;;;;7.63;77.90;102111.00;1752345;80;21159;-72
2021/10/18 03:12:10;;;;;;;34.35;17.90;;;;;;;7.62;78.00;102112.06;1758313;80;21239;-72
2021/10/18 03:14:43;;;;;;;37.98;19.17;;;;;;;7.61;78.04;102113.64;1766331;81;21175;-73
2021/10/18 03:17:16;;;;;;;46.45;19.70;;;;;;;7.62;78.04;102112.06;1746566;81;21226;-77
2021/10/18 03:19:49;;;;;;;38.50;17.55;;;;;;;7.60;77.94;102118.30;1736087;82;21214;-77
2021/10/18 03:22:22;;;;;;;35.10;16.30;;;;;;;7.55;77.94;102111.19;1736164;81;21198;-75
2021/10/18 03:24:54;;;;;;;35.33;16.55;;;;;;;7.52;78.04;102116.23;1735924;81;21230;-75
2021/10/18 03:27:27;;;;;;;41.92;19.80;;;;;;;7.47;78.12;102111.34;1735902;82;21203;-85
2021/10/18 03:29:59;;;;;;;37.80;19.42;;;;;;;7.46;78.19;102122.59;1736166;81;21187;-75
2021/10/18 03:32:32;;;;;;;39.40;20.30;;;;;;;7.46;78.25;102116.55;1735889;82;21780;-85
2021/10/18 03:35:06;;;;;;;36.53;17.30;;;;;;;7.45;78.21;102118.98;1736081;82;21195;-74
2021/10/18 03:37:38;;;;;;;38.05;18.65;;;;;;;7.40;78.15;102118.75;1736220;82;21172;-74
2021/10/18 03:40:13;;;;;;;39.18;18.50;;;;;;;7.38;78.19;102124.15;1736061;82;21286;-74
2021/10/18 03:42:45;;;;;;;41.88;19.15;;;;;;;7.38;78.28;102124.70;1765119;81;21187;-74
2021/10/18 03:45:18;;;;;;;38.65;21.60;;;;;;;7.38;78.29;102121.39;1766345;81;21171;-74
2021/10/18 03:47:50;;;;;;;52.13;23.00;;;;;;;7.36;78.25;102119.37;1756413;80;21195;-74
2021/10/18 03:50:23;;;;;;;55.20;21.75;;;;;;;7.33;78.19;102114.78;1761023;81;21171;-74
2021/10/18 03:52:56;;;;;;;40.15;19.12;;;;;;;7.29;78.17;102117.94;1802074;79;21210;-75
2021/10/18 03:55:29;;;;;;;49.08;21.25;;;;;;;7.28;78.20;102120.06;1770925;81;21768;-75
2021/10/18 03:58:01;;;;;;;45.15;20.35;;;;;;;7.26;78.32;102122.19;1771276;81;21321;-74
2021/10/18 04:00:35;;;;;;;51.48;22.30;;;;;;;7.26;78.37;102116.11;1771386;81;21330;-77
2021/10/18 04:03:15;;;;;;;54.18;23.62;;;;;;;7.27;78.34;102126.10;1770931;80;21314;-77
2021/10/18 04:05:48;;;;;;;37.13;20.00;;;;;;;7.25;78.30;102124.08;1762170;79;21184;-74
2021/10/18 04:08:23;;;;;;;43.03;20.00;;;;;;;7.22;78.21;102119.49;1750941;81;21183;-75
2021/10/18 04:10:56;;;;;;;45.45;19.65;;;;;;;7.18;78.24;102119.56;1748816;81;21203;-74
2021/10/18 04:13:28;;;;;;;51.50;20.32;;;;;;;7.16;78.37;102121.69;1740277;82;21186;-74
2021/10/18 04:16:01;;;;;;;55.80;20.40;;;;;;;7.17;78.43;102126.15;1742250;82;21238;-74
2021/10/18 04:18:34;;;;;;;55.40;22.45;;;;;;;7.17;78.40;102124.77;1749740;81;21234;-74
2021/10/18 04:21:07;;;;;;;62.78;22.95;;;;;;;7.15;78.33;102129.66;1739477;82;21238;-74
2021/10/18 04:23:41;;;;;;;51.63;19.02;;;;;;;7.13;78.30;102126.22;1744517;82;21686;-73
2021/10/18 04:26:13;;;;;;;52.93;19.73;;;;;;;7.10;78.35;102125.26;1691681;84;21460;-75
2021/10/18 04:28:47;;;;;;;43.30;19.90;;;;;;;7.10;78.50;102129.41;1695518;83;21222;-76
2021/10/18 04:31:20;;;;;;;38.55;19.67;;;;;;;7.10;78.46;102133.55;1710045;82;22007;-74
2021/10/18 04:33:53;;;;;;;44.83;21.50;;;;;;;7.09;78.57;102132.67;1700609;83;21806;-75
2021/10/18 04:36:26;;;;;;;55.58;21.20;;;;;;;7.11;78.53;102136.62;1673311;85;21303;-79
2021/10/18 04:39:01;;;;;;;42.17;18.70;;;;;;;7.09;78.48;102135.98;1708370;82;21431;-73
2021/10/18 04:41:35;;;;;;;47.85;19.48;;;;;;;7.09;78.49;102146.48;1712555;83;21325;-72
2021/10/18 04:44:09;;;;;;;48.55;20.70;;;;;;;7.11;78.56;102148.54;1710129;81;21337;-75
2021/10/18 04:46:43;;;;;;;35.13;19.02;;;;;;;7.14;78.60;102145.36;1738850;81;21179;-74
2021/10/18 04:49:16;;;;;;;43.92;20.52;;;;;;;7.16;78.52;102151.55;1740929;81;21160;-82
2021/10/18 04:51:49;;;;;;;48.10;19.30;;;;;;;7.16;78.48;102167.25;1740619;80;21219;-73
2021/10/18 04:54:21;;;;;;;39.37;17.73;;;;;;;7.16;78.56;102165.87;1782693;78;21298;-75
2021/10/18 04:56:54;;;;;;;44.38;18.12;;;;;;;7.18;78.61;102181.70;1807811;78;21321;-74
2021/10/18 04:59:28;;;;;;;48.02;20.82;;;;;;;7.21;78.65;102179.39;1793609;78;21270;-75
2021/10/18 05:02:01;;;;;;;41.58;18.70;;;;;;;7.23;78.59;102178.68;1797418;78;21811;-75
2021/10/18 05:04:34;;;;;;;53.38;19.77;;;;;;;7.26;78.72;102181.56;1794108;78;21847;-76
2021/10/18 05:07:07;;;;;;;45.00;19.10;;;;;;;7.29;78.74;102191.14;1797162;78;21831;-77
2021/10/18 05:09:40;;;;;;;39.10;17.80;;;;;;;7.32;78.83;102192.64;1784250;78;21831;-74
2021/10/18 05:12:15;;;;;;;44.60;20.02;;;;;;;7.36;78.90;102193.41;1792521;78;21854;-76
2021/10/18 05:14:48;;;;;;;38.78;18.57;;;;;;;7.45;79.08;102194.97;1793915;78;22092;-76
2021/10/18 05:17:21;;;;;;;56.15;19.37;;;;;;;7.55;79.16;102197.37;1793743;79;21446;-76
2021/10/18 05:19:53;;;;;;;41.55;19.60;;;;;;;7.64;79.10;102193.36;1731206;82;21303;-80
2021/10/18 05:22:26;;;;;;;38.60;19.77;;;;;;;7.69;78.94;102190.84;1795372;78;22562;-75
2021/10/18 05:25:04;;;;;;;39.80;18.23;;;;;;;7.77;79.03;102197.61;1805107;78;22005;-76
2021/10/18 05:27:41;;;;;;;36.23;19.23;;;;;;;7.86;79.02;102193.08;1790386;78;21364;-74
2021/10/18 05:30:16;;;;;;;41.58;19.15;;;;;;;7.95;78.98;102192.37;1790198;79;21364;-74
2021/10/18 05:32:49;;;;;;;52.15;21.75;;;;;;;8.07;78.88;102192.06;1767274;79;21365;-74
2021/10/18 05:35:22;;;;;;;45.30;21.68;;;;;;;8.08;78.68;102189.10;1783204;79;21182;-74
2021/10/18 05:37:55;;;;;;;54.67;21.93;;;;;;;8.11;78.67;102191.47;1803578;79;21360;-74
2021/10/18 05:40:28;;;;;;;48.60;22.10;;;;;;;8.14;78.55;102197.13;1805421;79;21344;-74
2021/10/18 05:43:00;;;;;;;57.13;22.42;;;;;;;8.17;78.45;102195.30;1792446;79;21194;-72
2021/10/18 05:45:34;;;;;;;51.90;21.82;;;;;;;8.27;78.65;102200.79;1774405;79;21457;-73
2021/10/18 05:48:07;;;;;;;57.27;21.40;;;;;;;8.41;78.57;102212.23;1773541;81;21368;-75
2021/10/18 05:50:43;;;;;;;52.15;22.42;;;;;;;8.53;78.37;102208.31;1773420;81;21320;-73
2021/10/18 05:53:16;;;;;;;45.60;21.60;;;;;;;8.65;78.07;102203.86;1773778;80;21230;-75
2021/10/18 05:55:49;;;;;;;47.13;18.95;;;;;;;8.77;77.65;102215.50;1741109;82;21362;-74
2021/10/18 05:58:22;;;;;;;41.28;18.82;;;;;;;8.87;77.30;102213.15;1741103;82;21171;-74
2021/10/18 06:00:55;;;;;;;59.20;26.70;;;;;;;8.99;77.11;102214.77;1741186;82;21175;-77
2021/10/18 06:03:28;;;;;;;46.75;19.17;;;;;;;9.15;76.88;102219.34;1741818;82;21329;-74
2021/10/18 06:06:06;;;;;;;40.33;19.32;;;;;;;9.30;76.22;102211.64;1740974;82;21334;-75
2021/10/18 06:08:38;;;;;;;41.88;19.73;;;;;;;9.47;75.54;102214.30;1739454;82;21305;-73
2021/10/18 06:11:16;;;;;;;46.30;18.62;;;;;;;9.66;75.08;102216.73;1741021;82;21183;-74
2021/10/18 06:13:47;;;;;;;52.17;24.18;;;;;;;9.86;74.48;102219.73;1771598;81;21185;-70
2021/10/18 06:16:20;;;;;;;42.03;21.12;;;;;;;10.03;73.69;102219.60;1771008;79;21760;-74
2021/10/18 06:18:55;;;;;;;42.60;19.65;;;;;;;10.25;73.45;102231.25;1764664;80;21239;-76
2021/10/18 06:21:31;;;;;;;47.67;19.95;;;;;;;10.47;72.59;102228.48;1742142;81;21314;-80
2021/10/18 06:24:04;;;;;;;42.40;18.35;;;;;;;10.69;71.87;102227.91;1745546;81;21353;-77
2021/10/18 06:26:37;;;;;;;39.20;16.97;;;;;;;10.91;71.19;102230.66;1758841;81;21265;-76
2021/10/18 06:29:11;;;;;;;35.25;18.05;;;;;;;11.13;70.53;102230.56;1756737;81;21214;-75
2021/10/18 06:31:50;;;;;;;38.67;17.75;;;;;;;11.32;69.79;102232.88;1704763;83;21336;-74
2021/10/18 06:34:25;;;;;;;39.42;19.05;;;;;;;11.46;68.97;102224.19;1741664;82;21288;-74
2021/10/18 06:36:58;;;;;;;42.25;19.10;;;;;;;11.62;68.08;102235.30;1753841;80;21237;-76
2021/10/18 06:39:40;;;;;;;35.78;17.92;;;;;;;11.77;67.30;102234.38;1742363;81;21226;-77
2021/10/18 06:42:16;;;;;;;29.30;15.63;;;;;;;11.94;66.60;102228.52;1752105;82;21620;-76
2021/10/18 06:44:49;;;;;;;35.25;16.35;;;;;;;12.06;65.53;102227.52;1752193;81;21164;-74
2021/10/18 06:47:22;;;;;;;32.35;15.60;;;;;;;12.19;65.02;102231.53;1754122;80;21174;-75
2021/10/18 06:50:25;;;;;;;35.70;14.78;;;;;;;12.33;64.52;102235.84;1753270;79;21324;-76
2021/10/18 06:52:58;;;;;;;30.32;15.30;;;;;;;12.45;64.25;102231.19;1752297;82;21172;-76
2021/10/18 06:55:33;;;;;;;37.83;14.28;;;;;;;12.59;64.08;102224.89;1751995;81;21249;-75
2021/10/18 06:58:07;;;;;;;26.95;14.18;;;;;;;12.70;63.79;102222.14;1752105;82;21159;-74
2021/10/18 07:00:41;;;;;;;31.75;14.73;;;;;;;12.83;63.12;102226.12;1752936;80;21174;-77
2021/10/18 07:03:16;;;;;;;30.37;15.68;;;;;;;12.94;62.64;102236.45;1765534;80;21360;-74
2021/10/18 07:05:49;;;;;;;;;;;;;;;13.04;62.03;102237.30;1785691;79;21713;-77
2021/10/18 07:08:21;;;;;;;36.08;14.80;;;;;;;13.15;61.83;102235.09;1782837;80;20182;-76
2021/10/18 07:10:55;;;;;;;30.10;12.63;;;;;;;13.24;61.18;102235.03;1783237;80;21358;-77
2021/10/18 07:13:28;;;;;;;30.57;13.90;;;;;;;13.33;60.53;102229.42;1781845;80;21886;-77
2021/10/18 07:16:01;;;;;;;36.10;13.88;;;;;;;13.41;60.40;102227.13;1765745;80;21198;-73
2021/10/18 07:18:34;;;;;;;28.67;14.40;;;;;;;13.53;60.11;102229.38;1783286;79;21325;-76
2021/10/18 07:21:07;;;;;;;25.10;12.50;;;;;;;13.60;59.35;102231.50;1780775;79;21199;-76
2021/10/18 07:23:45;;;;;;;32.23;12.82;;;;;;;13.67;59.25;102223.84;1766120;80;21230;-75
2021/10/18 07:26:21;;;;;;;27.85;12.68;;;;;;;13.75;59.07;102221.25;1752156;82;21186;-78
2021/10/18 07:28:55;;;;;;;41.65;15.15;;;;;;;13.80;58.59;102222.20;1771493;79;21878;-73
2021/10/18 07:31:30;;;;;;;26.35;14.07;;;;;;;13.84;57.87;102220.63;1770392;80;21162;-72
2021/10/18 07:34:06;;;;;;;26.27;11.47;;;;;;;13.85;57.68;102211.15;1768556;80;21225;-71
2021/10/18 07:36:48;;;;;;;23.32;10.65;;;;;;;13.89;57.50;102213.77;1769476;80;21259;-78
2021/10/18 07:39:20;;;;;;;29.70;11.50;;;;;;;13.92;57.46;102213.27;1765427;80;21313;-77
2021/10/18 07:41:58;;;;;;;23.77;10.65;;;;;;;13.99;57.11;102209.78;1768258;80;21364;-71
2021/10/18 07:44:31;;;;;;;27.70;10.70;;;;;;;14.05;56.81;102212.16;1765360;80;21894;-72
2021/10/18 07:47:04;;;;;;;26.42;11.83;;;;;;;14.09;56.33;102214.20;1767308;80;21362;-72
2021/10/18 07:49:40;;;;;;;24.72;11.73;;;;;;;14.13;56.07;102214.00;1766351;79;21208;-77
2021/10/18 07:52:15;;;;;;;23.85;12.05;;;;;;;14.18;55.71;102211.88;1768087;79;21968;-76
2021/10/18 07:54:53;;;;;;;30.70;14.13;;;;;;;14.18;55.44;102208.52;1733838;81;21443;-75
2021/10/18 07:57:25;;;;;;;29.27;13.20;;;;;;;14.22;55.53;102210.30;1700753;83;21261;-72
2021/10/18 08:00:03;;;;;;;51.48;26.50;;;;;;;14.23;55.23;102212.03;1701018;84;21191;-71
2021/10/18 08:02:35;;;;;;;51.42;25.90;;;;;;;14.22;54.83;102204.18;1702795;84;21776;-72
2021/10/18 08:05:08;;;;;;;48.60;23.60;;;;;;;14.25;54.71;102209.26;1696496;83;21423;-72
2021/10/18 08:07:42;;;;;;;38.80;19.92;;;;;;;14.26;54.60;102201.74;1735158;80;22561;-75
2021/10/18 08:10:23;;;;;;;36.75;15.80;;;;;;;14.28;54.56;102205.98;1688446;84;21282;-76
2021/10/18 08:12:58;;;;;;;26.50;14.03;;;;;;;14.30;54.48;102205.75;1771817;80;21855;-75
2021/10/18 08:15:31;;;;;;;20.60;13.32;;;;;;;14.33;54.48;102213.09;1764451;81;21305;-72
2021/10/18 08:18:04;;;;;;;24.18;12.25;;;;;;;14.33;54.48;102213.09;1703055;84;21737;-71
2021/10/18 08:20:38;;;;;;;26.70;11.00;;;;;;;14.35;54.56;102210.88;1701389;83;21254;-72
2021/10/18 08:23:13;;;;;;;22.20;10.82;;;;;;;14.35;54.19;102208.09;1712384;82;21238;-71
2021/10/18 08:25:46;;;;;;;23.60;10.53;;;;;;;14.39;53.87;102209.83;1702199;82;21803;-70
2021/10/18 08:28:18;;;;;;;21.10;10.43;;;;;;;14.49;53.00;102213.67;1690424;83;21390;-71
2021/10/18 08:30:53;;;;;;;19.95;11.85;;;;;;;14.53;53.06;102209.30;1667163;84;21342;-71
2021/10/18 08:33:26;;;;;;;29.35;14.10;;;;;;;14.53;53.06;102209.30;1717620;81;21321;-71
2021/10/18 08:36:04;;;;;;;32.88;12.55;;;;;;;14.55;53.19;102216.04;1719897;81;21281;-73
2021/10/18 08:41:27;;;;;;;54.70;13.83;;;;;;;14.32;52.81;102213.33;1716877;81;21336;-71
2021/10/18 08:44:16;;;;;;;20.77;11.50;;;;;;;14.17;53.31;102215.21;1678285;85;21364;-73
2021/10/18 08:46:58;;;;;;;30.35;12.15;;;;;;;14.08;53.54;102215.31;1745778;82;21377;-71
2021/10/18 08:49:28;;;;;;;25.97;11.73;;;;;;;13.97;51.40;102221.77;1743135;82;21416;-76
2021/10/18 08:52:01;;;;;;;25.72;12.33;;;;;;;13.81;50.65;102216.91;1742830;82;21392;-72
2021/10/18 08:54:34;;;;;;;25.82;12.05;;;;;;;13.71;50.46;102218.09;1743001;82;21843;-77
2021/10/18 08:57:07;;;;;;;22.73;10.15;;;;;;;13.65;50.42;102214.88;1756815;81;21396;-78
2021/10/18 08:59:41;;;;;;;19.55;9.98;;;;;;;13.64;50.21;102210.36;1752510;81;21187;-76
2021/10/18 09:02:15;;;;;;;21.70;11.30;;;;;;;13.67;50.59;102207.63;1783540;79;21163;-73
2021/10/18 09:04:54;;;;;;;19.27;10.68;;;;;;;13.70;50.46;102208.56;1758136;81;21321;-78
2021/10/18 09:07:28;;;;;;;22.40;11.30;;;;;;;13.70;50.29;102209.39;1771619;81;21345;-78
2021/10/18 09:10:01;;;;;;;25.00;13.18;;;;;;;13.69;50.41;102213.28;1770692;81;21366;-79
2021/10/18 09:12:39;;;;;;;24.07;10.95;;;;;;;13.67;50.50;102207.10;1759079;81;21907;-76
2021/10/18 09:15:27;;;;;;;28.30;13.20;;;;;;;13.68;50.82;102204.61;1762707;80;21179;-79
2021/10/18 09:18:01;;;;;;;28.32;11.30;;;;;;;13.71;51.06;102199.95;1762059;79;21732;-79
2021/10/18 09:20:36;;;;;;;31.23;11.55;;;;;;;13.75;50.72;102202.53;1729269;83;21377;-73
2021/10/18 09:23:36;;;;;;;26.97;11.08;;;;;;;13.78;51.06;102197.88;1733668;82;21203;-76
2021/10/18 09:26:10;;;;;;;21.55;12.07;;;;;;;13.84;50.84;102198.29;1755702;81;21380;-77
2021/10/18 09:28:44;;;;;;;40.63;11.97;;;;;;;13.87;50.29;102190.80;1728340;82;21349;-78
2021/10/18 09:31:20;;;;;;;19.48;9.75;;;;;;;13.91;50.55;102192.02;1754942;81;21725;-73
2021/10/18 09:33:57;;;;;;;25.30;10.88;;;;;;;13.97;49.71;102188.78;1759941;81;21743;-81
2021/10/18 09:36:32;;;;;;;20.75;10.60;;;;;;;13.98;48.99;102182.95;1728735;82;21282;-80
2021/10/18 09:39:29;;;;;;;19.20;10.43;;;;;;;13.99;48.97;102184.65;1804720;79;21768;-79
2021/10/18 09:42:05;;;;;;;20.75;10.23;;;;;;;14.02;48.56;102194.48;1799570;79;21838;-77
2021/10/18 10:54:43;;;;;;;28.32;10.45;;;;;;;13.98;47.86;102138.27;1760109;80;21254;-75
2021/10/18 10:57:38;;;;;;;22.00;9.20;;;;;;;13.95;47.99;102142.97;1760916;81;21808;-73
2021/10/18 11:00:08;;;;;;;20.97;10.03;;;;;;;13.91;48.52;102140.36;1778783;80;21370;-77
2021/10/18 11:02:42;;;;;;;28.30;11.05;;;;;;;13.91;48.52;102140.36;1759817;79;21210;-74
2021/10/18 11:05:16;;;;;;;28.47;9.38;;;;;;;13.89;48.35;102136.97;1775337;80;21330;-76
2021/10/18 11:07:54;;;;;;;20.62;9.55;;;;;;;13.88;48.41;102136.64;1716663;81;21707;-82
2021/10/18 11:10:28;;;;;;;27.58;10.25;;;;;;;13.88;48.26;102145.02;1731015;82;21267;-72
2021/10/18 11:13:07;;;;;;;27.20;10.60;;;;;;;13.85;48.43;102139.09;1807204;79;21317;-71
2021/10/18 11:15:40;;;;;;;21.70;11.25;;;;;;;13.83;48.74;102142.15;1808068;79;21602;-73
2021/10/18 11:18:26;;;;;;;26.25;10.65;;;;;;;13.84;49.00;102136.86;1806375;79;21962;-72
2021/10/18 11:21:13;;;;;;;22.87;10.88;;;;;;;13.89;48.99;102141.70;1795660;79;21317;-70
2021/10/18 11:24:04;;;;;;;22.70;10.03;;;;;;;13.89;48.80;102136.97;1799666;79;21186;-70
2021/10/18 11:26:40;;;;;;;24.57;9.88;;;;;;;13.91;48.95;102133.38;1750030;80;21187;-74
2021/10/18 11:29:13;;;;;;;22.75;10.38;;;;;;;13.91;48.95;102133.38;1754932;81;21219;-71
2021/10/18 11:31:46;;;;;;;23.27;10.75;;;;;;;13.97;48.63;102133.78;1768215;80;21329;-72
2021/10/18 11:34:19;;;;;;;23.87;12.17;;;;;;;14.03;48.82;102125.81;1771396;80;21819;-71
2021/10/18 11:36:52;;;;;;;26.65;11.63;;;;;;;14.10;48.84;102124.25;1756829;80;22070;-72
2021/10/18 11:39:29;;;;;;;23.57;10.43;;;;;;;14.17;48.69;102126.38;1763837;80;21356;-72
2021/10/18 11:42:08;;;;;;;19.85;10.15;;;;;;;14.20;48.53;102121.17;1773698;80;21372;-70
2021/10/18 11:44:55;;;;;;;21.45;9.85;;;;;;;14.18;48.04;102119.12;1774323;81;21388;-75
2021/10/18 11:47:39;;;;;;;21.80;9.75;;;;;;;14.18;48.04;102119.12;1742799;82;21906;-75
2021/10/18 11:50:24;;;;;;;25.68;10.00;;;;;;;14.15;48.41;102116.84;1779600;79;21313;-72
2021/10/18 11:53:02;;;;;;;19.02;10.13;;;;;;;14.14;48.19;102115.16;1814019;79;21297;-72
2021/10/18 11:55:41;;;;;;;18.40;8.75;;;;;;;14.14;48.15;102110.95;1766337;79;21290;-74
2021/10/18 11:58:20;;;;;;;17.48;8.70;;;;;;;14.16;47.79;102105.96;1768097;80;21273;-72
2021/10/18 12:01:03;;;;;;;19.35;8.78;;;;;;;14.22;47.88;102109.72;1707802;82;21388;-70
2021/10/18 12:03:36;;;;;;;19.65;9.50;;;;;;;14.27;47.55;102111.22;1711791;83;21848;-71
2021/10/18 12:06:10;;;;;;;20.52;9.65;;;;;;;14.31;46.82;102105.44;1777242;80;21986;-70
2021/10/18 12:08:45;;;;;;;19.25;8.58;;;;;;;14.33;47.01;102106.03;1771551;80;21887;-71
2021/10/18 12:11:20;;;;;;;19.15;9.15;;;;;;;14.33;47.02;102108.29;1787319;80;21380;-71
2021/10/18 12:13:57;;;;;;;15.25;8.10;;;;;;;14.31;46.69;102111.86;1794468;80;21372;-72
2021/10/18 12:16:30;;;;;;;16.80;8.13;;;;;;;14.25;46.68;102108.67;1794370;80;21242;-73
2021/10/18 12:19:02;;;;;;;15.35;8.80;;;;;;;14.17;46.62;102106.25;1794278;79;21313;-72
2021/10/18 12:21:39;;;;;;;15.90;8.93;;;;;;;14.12;46.88;102103.92;1787646;80;21389;-76
2021/10/18 12:24:16;;;;;;;28.83;9.60;;;;;;;14.09;47.10;102101.61;1774178;80;21171;-74
2021/10/18 12:26:56;;;;;;;16.67;8.40;;;;;;;14.08;46.66;102100.78;1770640;80;22067;-76
2021/10/18 12:29:28;;;;;;;17.62;8.43;;;;;;;14.07;46.72;102097.70;1769752;80;21370;-77
2021/10/18 12:32:08;;;;;;;26.55;8.50;;;;;;;14.09;47.07;102092.70;1769217;80;21184;-76
2021/10/18 12:34:41;;;;;;;22.22;9.00;;;;;;;14.13;47.29;102100.02;1767139;80;21412;-77
2021/10/18 12:37:15;;;;;;;16.82;8.78;;;;;;;14.18;46.44;102102.36;1739334;82;21376;-76
2021/10/18 12:39:58;;;;;;;23.42;9.58;;;;;;;14.24;46.31;102095.80;1731134;81;21427;-76
2021/10/18 12:42:36;;;;;;;18.42;8.30;;;;;;;14.31;46.49;102109.64;1739649;82;21775;-75
2021/10/18 12:45:16;;;;;;;19.05;9.00;;;;;;;14.38;46.25;102108.92;1739516;81;21378;-75
2021/10/18 12:47:56;;;;;;;26.30;10.43;;;;;;;14.41;46.39;102104.22;1771070;80;21419;-74
2021/10/18 12:50:36;;;;;;;24.90;10.18;;;;;;;14.45;46.28;102104.89;1740024;82;21343;-75
2021/10/18 12:53:12;;;;;;;20.25;10.08;;;;;;;14.47;46.29;102108.80;1755856;80;21396;-76
2021/10/18 12:55:42;;;;;;;18.48;9.30;;;;;;;14.47;46.29;102108.80;1788632;79;21328;-74
2021/10/18 12:58:21;;;;;;;25.17;11.20;;;;;;;14.43;45.98;102111.83;1776242;79;21316;-75
2021/10/18 13:00:55;;;;;;;23.80;12.07;;;;;;;14.34;45.55;102109.98;1729158;82;21266;-78
2021/10/18 13:03:28;;;;;;;20.70;10.72;;;;;;;14.26;45.88;102102.02;1794582;79;21234;-77